Hauptseite
METAR-TAF:

METAR-TAF

Flughäfen :

Flughafen Lübeck

Lübeck, Deutschland

Breite: 53-49N, Länge: 010-42E, Höhe: 14 m

Beobachtung

Neuester Wetterbericht von vor 8 Stunden und 44 Minuten, um 17:50 UTC
Wind 11 kt aus Ost, variierte zwischen Ost/Nordost und Südost
Temperatur 3°C
Luftfeuchtigkeit 70%
Luftdruck 1018 hPa
Sichtweite 10 km oder mehr
Durchbrochene Bewölkung in der Höhe von 2500 ft

METAR: EDHL 201750Z 10011KT 060V130 9999 BKN025 03/M02 Q1018

Zeit: 03:34 (02:34 UTC)

Prognose

Neuester Wetterbericht von vor 9 Stunden und 34 Minuten, um 17:00 UTC
Gültige Prognose vom 20 um 18 UTC bis 20 um 21 UTC
Wind 10 kt aus Ost
Sichtweite 10 km oder mehr
Durchbrochene Bewölkung in der Höhe von 2000 ft
Wahrscheinlichkeit 30% :
Zeitweise
vom 20 um 18 UTC bis 20 um 21 UTC
Wind 15 kt aus Ost, Böen bis zu 25 kt

TAF: EDHL 201700Z 2018/2021 09010KT 9999 BKN020 PROB30 TEMPO 2018/2021 10015G25KT

Wetterbeobachtungen und Prognosen von mehr als 4000 Flughäfen (METAR und TAF Bericht).

Die verfügbaren Stationen werden durch gelbe und rote Markierungen auf der Karte dargestellt.

Führen Sie die Maus auf sie, um den Namen der Station zu sehen.

Darauf klicken, um die Beobachtung von Wetterbeobachtungen und Prognosen zu sehen.

Um die Karte zu ändern : klicken Sie auf den grünen Tasten mit einem schwarzen Kreuz Zum Vergrößern, auf den grünen Button mit einem Gedankenstrich zu verkleinern, oder auf die grünen Pfeile für benachbarte Karten.


METAR-TAF: